createdAt,value
2018-08-31T07:48:54.247Z,16.20
2018-08-31T07:51:24.637Z,16.40
2018-08-31T07:58:50.722Z,16.60
2018-08-31T08:01:23.480Z,16.90
2018-08-31T08:03:51.861Z,17.00
2018-08-31T08:06:20.164Z,17.50
2018-08-31T08:18:54.333Z,18.20
2018-08-31T08:21:25.973Z,18.60
2018-08-31T08:23:54.568Z,18.30
2018-08-31T08:26:30.105Z,18.30
2018-08-31T08:28:59.156Z,18.70
2018-08-31T08:36:30.263Z,18.00
2018-08-31T08:41:28.142Z,19.20
2018-08-31T08:46:24.707Z,20.50
2018-08-31T08:49:02.661Z,19.80
2018-08-31T08:51:31.768Z,18.70
2018-08-31T08:59:26.230Z,20.00
2018-08-31T09:01:54.459Z,19.70
2018-08-31T09:04:23.452Z,19.10
2018-08-31T09:06:53.621Z,19.40
2018-08-31T09:09:21.965Z,19.80
2018-08-31T09:14:19.259Z,19.80
2018-08-31T09:16:49.713Z,20.80
2018-08-31T09:19:18.726Z,20.70
2018-08-31T09:21:47.112Z,19.70
2018-08-31T09:24:15.666Z,19.60
2018-08-31T09:26:51.480Z,19.40
2018-08-31T09:29:20.186Z,19.50
2018-08-31T09:31:48.593Z,19.50
2018-08-31T09:37:05.468Z,19.50
2018-08-31T09:39:34.029Z,20.10
2018-08-31T09:42:02.706Z,20.50
2018-08-31T09:46:59.127Z,19.50
2018-08-31T09:49:27.442Z,19.50
2018-08-31T09:51:58.566Z,19.50
2018-08-31T10:01:52.908Z,19.40
2018-08-31T10:04:21.345Z,19.50
2018-08-31T10:09:18.103Z,20.00
2018-08-31T10:14:14.989Z,20.30
2018-08-31T10:19:12.194Z,21.40
2018-08-31T10:26:37.417Z,21.00
2018-08-31T10:29:05.798Z,20.70
2018-08-31T10:34:02.173Z,20.90
2018-08-31T10:36:30.532Z,22.20
2018-08-31T10:38:58.793Z,22.30
2018-08-31T10:41:27.251Z,22.40
2018-08-31T10:43:55.540Z,21.30
2018-08-31T10:46:23.899Z,21.60
2018-08-31T10:48:52.125Z,21.50
2018-08-31T10:53:48.876Z,23.40
2018-08-31T10:56:17.154Z,22.90
2018-08-31T10:58:45.409Z,22.40
2018-08-31T11:01:13.793Z,22.30
2018-08-31T11:03:42.083Z,22.50
2018-08-31T11:06:11.734Z,22.30
2018-08-31T11:08:39.973Z,22.70
2018-08-31T11:11:08.242Z,23.20
2018-08-31T11:16:06.022Z,23.00
2018-08-31T11:18:34.320Z,22.90
2018-08-31T11:21:03.347Z,23.10
2018-08-31T11:23:33.497Z,23.50
2018-08-31T11:26:01.802Z,22.40
2018-08-31T11:28:33.398Z,22.30
2018-08-31T11:33:39.306Z,23.50
2018-08-31T11:36:07.865Z,23.20
2018-08-31T11:41:10.658Z,23.60
2018-08-31T11:43:39.289Z,23.40
2018-08-31T11:46:08.993Z,22.70
2018-08-31T11:48:37.596Z,23.40
2018-08-31T11:51:06.454Z,23.00
2018-08-31T11:56:03.229Z,23.40
2018-08-31T11:58:33.657Z,23.70
2018-08-31T12:01:02.100Z,23.20
2018-08-31T12:03:30.379Z,23.60
2018-08-31T12:05:58.729Z,23.80
2018-08-31T12:08:27.017Z,23.90
2018-08-31T12:15:51.350Z,23.40
2018-08-31T12:18:19.565Z,24.00
2018-08-31T12:25:43.797Z,21.80
2018-08-31T12:28:12.585Z,22.80
2018-08-31T12:33:09.060Z,23.50
2018-08-31T12:35:37.300Z,23.50
2018-08-31T12:38:05.751Z,23.40
2018-08-31T12:40:34.363Z,23.70
2018-08-31T12:43:02.626Z,24.20
2018-08-31T12:45:31.146Z,23.70
2018-08-31T12:47:59.431Z,23.50
2018-08-31T12:50:27.672Z,23.90
2018-08-31T12:52:55.914Z,24.00
2018-08-31T12:55:24.117Z,24.30
2018-08-31T12:57:52.380Z,24.20
2018-08-31T13:00:20.603Z,23.50
2018-08-31T13:02:49.266Z,23.70
2018-08-31T13:05:17.526Z,23.80
2018-08-31T13:07:45.771Z,23.90
2018-08-31T13:10:14.127Z,24.00
2018-08-31T13:12:42.424Z,24.30
2018-08-31T13:15:10.679Z,25.60
2018-08-31T13:17:38.888Z,26.30
2018-08-31T13:25:03.051Z,24.00
2018-08-31T13:30:00.516Z,23.20
2018-08-31T13:32:28.756Z,24.50
2018-08-31T13:34:57.043Z,24.60
2018-08-31T13:37:25.319Z,24.90
2018-08-31T13:39:53.569Z,25.30
2018-08-31T13:42:21.849Z,25.70
2018-08-31T13:44:50.118Z,25.70
2018-08-31T13:47:18.411Z,24.80
2018-08-31T13:54:42.707Z,23.00
2018-08-31T13:57:10.897Z,24.00
2018-08-31T14:02:07.167Z,24.40
2018-08-31T14:04:35.625Z,24.60
2018-08-31T14:07:04.207Z,24.40
2018-08-31T14:09:32.474Z,23.60
2018-08-31T14:12:00.720Z,23.50
2018-08-31T14:16:57.243Z,25.10
2018-08-31T14:19:25.894Z,25.10
2018-08-31T14:21:54.092Z,25.20
2018-08-31T14:26:50.382Z,23.20
2018-08-31T14:29:18.692Z,22.20
2018-08-31T14:31:46.858Z,22.30
2018-08-31T14:36:43.214Z,23.30
2018-08-31T14:39:11.281Z,24.10
2018-08-31T14:41:39.740Z,23.40
2018-08-31T14:44:10.543Z,23.90
2018-08-31T14:46:39.016Z,24.40
2018-08-31T14:49:07.610Z,24.10
2018-08-31T14:54:04.118Z,23.20
2018-08-31T14:56:33.944Z,23.10
2018-08-31T14:59:02.460Z,22.90
2018-08-31T15:01:31.095Z,22.30
2018-08-31T15:04:01.011Z,22.00
2018-08-31T15:06:29.201Z,21.60
2018-08-31T15:08:57.454Z,21.50
2018-08-31T15:14:01.157Z,21.80
2018-08-31T15:16:29.402Z,21.70
2018-08-31T15:18:57.609Z,22.60
2018-08-31T15:23:53.920Z,23.80
2018-08-31T15:28:50.289Z,24.60
2018-08-31T15:31:18.740Z,24.70
2018-08-31T15:36:15.036Z,24.30
2018-08-31T15:38:43.259Z,24.30
2018-08-31T15:41:11.502Z,24.00
2018-08-31T15:43:39.784Z,23.60
2018-08-31T15:46:08.178Z,23.30
2018-08-31T15:51:04.450Z,22.90
2018-08-31T15:53:32.693Z,22.30
2018-08-31T15:56:00.925Z,22.80
2018-08-31T16:03:25.153Z,22.80
2018-08-31T16:08:21.379Z,22.90
2018-08-31T16:10:49.594Z,22.60
2018-08-31T16:13:17.827Z,22.10
2018-08-31T16:15:46.041Z,21.60
2018-08-31T16:18:14.347Z,21.90
2018-08-31T16:20:42.651Z,21.90
2018-08-31T16:23:10.911Z,22.00
2018-08-31T16:28:07.137Z,21.20
2018-08-31T16:30:35.340Z,21.00
2018-08-31T16:35:31.512Z,21.20
2018-08-31T16:37:59.780Z,21.40
2018-08-31T16:45:24.025Z,20.70
2018-08-31T16:47:52.311Z,20.80
2018-08-31T16:50:20.520Z,20.50
2018-08-31T16:52:48.887Z,20.70
2018-08-31T16:55:17.182Z,20.50
2018-08-31T16:57:45.389Z,20.60
2018-08-31T17:00:13.700Z,20.60
2018-08-31T17:02:41.944Z,20.50
2018-08-31T17:05:10.247Z,20.30
2018-08-31T17:07:38.530Z,20.50
2018-08-31T17:10:07.499Z,20.40
2018-08-31T17:15:04.500Z,20.10
2018-08-31T17:20:03.117Z,20.40
2018-08-31T17:22:31.532Z,20.40
2018-08-31T17:25:00.872Z,20.20
2018-08-31T17:27:34.808Z,19.90
2018-08-31T17:35:15.497Z,19.30
2018-08-31T17:37:45.095Z,19.20
2018-08-31T17:40:13.722Z,19.20
2018-08-31T17:42:42.310Z,19.00
2018-08-31T17:45:12.196Z,19.10
2018-08-31T17:50:09.938Z,19.00
2018-08-31T17:55:06.493Z,18.90
2018-08-31T17:57:36.029Z,18.80
2018-08-31T18:02:32.518Z,18.70
2018-08-31T18:05:01.854Z,18.60
2018-08-31T18:09:58.273Z,18.30
2018-08-31T18:12:26.574Z,18.30
2018-08-31T18:14:55.082Z,18.20
2018-08-31T18:17:23.709Z,18.10
2018-08-31T18:19:52.016Z,18.10
2018-08-31T18:24:49.124Z,18.00
2018-08-31T18:27:18.296Z,17.90
2018-08-31T18:29:46.515Z,17.80
2018-08-31T18:32:14.842Z,17.70
2018-08-31T18:34:43.461Z,17.60
2018-08-31T18:37:11.874Z,17.40
2018-08-31T18:39:40.137Z,17.50
2018-08-31T18:42:08.423Z,17.30
2018-08-31T18:44:36.769Z,17.20
2018-08-31T18:54:30.509Z,16.70
2018-08-31T19:01:54.843Z,16.60
2018-08-31T19:04:23.481Z,16.40
2018-08-31T19:06:51.837Z,16.40
2018-08-31T19:09:20.444Z,16.40
2018-08-31T19:14:17.122Z,16.10
2018-08-31T19:16:45.393Z,16.10
2018-08-31T19:21:41.655Z,16.00
2018-08-31T19:24:10.158Z,15.90
2018-08-31T19:29:06.386Z,15.50
2018-08-31T19:31:34.735Z,15.40
2018-08-31T19:36:30.978Z,15.30
2018-08-31T19:38:59.286Z,15.20
2018-08-31T19:41:27.482Z,15.20
2018-08-31T19:46:23.938Z,15.00
2018-08-31T19:48:52.890Z,14.90
2018-08-31T19:51:21.726Z,14.90
2018-08-31T19:53:50.084Z,14.90
2018-08-31T19:56:18.509Z,14.90
2018-08-31T19:58:46.791Z,14.80
2018-08-31T20:01:14.989Z,14.80
2018-08-31T20:03:43.185Z,14.70
2018-08-31T20:06:11.453Z,14.60
2018-08-31T20:16:03.770Z,14.40
2018-08-31T20:18:31.988Z,14.40
2018-08-31T20:23:28.153Z,14.20
2018-08-31T20:25:56.354Z,14.10
2018-08-31T20:28:24.707Z,14.00
2018-08-31T20:30:52.933Z,13.90
2018-08-31T20:35:49.171Z,13.80
2018-08-31T20:38:17.456Z,13.80
2018-08-31T20:40:45.680Z,13.70
2018-08-31T20:50:38.073Z,13.80
2018-08-31T20:55:40.801Z,13.80
2018-08-31T20:58:09.451Z,13.80
2018-08-31T21:00:37.673Z,13.80
2018-08-31T21:03:05.921Z,13.80
2018-08-31T21:08:02.074Z,13.50
2018-08-31T21:10:30.292Z,13.30
2018-08-31T21:12:58.613Z,13.40
2018-08-31T21:15:26.811Z,13.40
2018-08-31T21:17:55.008Z,13.40
2018-08-31T21:20:23.211Z,13.20
2018-08-31T21:22:51.458Z,13.10
2018-08-31T21:25:19.689Z,13.10
2018-08-31T21:27:47.960Z,13.00
2018-08-31T21:30:16.215Z,12.90
2018-08-31T21:32:44.468Z,12.90
2018-08-31T21:35:12.708Z,12.90
2018-08-31T21:37:40.885Z,12.90
2018-08-31T21:40:09.953Z,13.10
2018-08-31T21:42:38.274Z,13.10
2018-08-31T21:45:06.380Z,13.20
2018-08-31T21:47:34.674Z,13.10
2018-08-31T21:50:02.921Z,13.10
2018-08-31T21:52:31.199Z,13.00
2018-08-31T21:54:59.489Z,12.90
2018-08-31T21:57:27.710Z,12.90
2018-08-31T21:59:55.918Z,12.90
